Thunder radar more information blitzortung!


Löydät sääaseman tiedot myös:

European Weather Network

Finland Weather Exchange

Weather Underground

AWEKAS



Weather Underground säähistoriasivu

Päivittäin yhteenveto Tammikuu 22, 2017 Yksiköt:  Englantilaiset    Metriset   Molemmat
« Edellinen Päivä
Seuraava Päivä »
Päivittäin Viikoittain Kuukausittain Vuosittain Mukautettu
  Korkea: Matala: Keskiarvo:
Lämpötila: TemperatureC °F -0.1 °F 2.5 °F
Kastepiste: DewpointC °F -0.8 °F 1.3 °F
Kosteus: Humidity % 86 % 91 %
Tuulen nopeus: WindSpeedKMH mph 0.0 mph 0 mph
Tuulenpuuska: WindSpeedGustKMH mph - -
Tuuli:- - North
Ilmanpaine: PressurehPa in 1009.0 in -
Sade: 0.0 in    
Historical Graphs
 
 
Taulukkotiedot Tammikuu 22, 2017
Aika Lämpötila Kastepiste Ilmanpaine Tuuli Tuulen nopeus Tuulenpuuska Kosteus Sademäärä (tunneittain)
TemperatureC °F DewpointC °F PressurehPa in Calm     Humidity % HourlyPrecipMM in
00:00 2.6 °F 2.1 °F 1015.5 in Calm     97 % 0.0 in
00:15 3.1 °F 2.5 °F 1015.5 in Calm     96 % 0.0 in
00:30 3.1 °F 2.4 °F 1015.5 in Calm     95 % 0.0 in
00:45 3.2 °F 2.3 °F 1015.5 in Calm     94 % 0.0 in
01:00 3.3 °F 2.5 °F 1015.5 in Calm     94 % 0.0 in
01:15 3.5 °F 2.5 °F 1015.5 in Calm     93 % 0.0 in
01:30 3.4 °F 2.4 °F 1015.5 in Calm     93 % 0.0 in
01:45 3.4 °F 2.4 °F 1015.5 in Calm     93 % 0.0 in
02:00 3.4 °F 2.4 °F 1015.5 in Calm     93 % 0.0 in
02:15 3.4 °F 2.2 °F 1015.5 in Calm     92 % 0.0 in
02:30 3.4 °F 2.2 °F 1015.5 in Calm     92 % 0.0 in
02:45 3.3 °F 2.3 °F 1015.5 in Calm     93 % 0.0 in
03:00 3.3 °F 2.2 °F 1015.5 in Calm     92 % 0.0 in
03:15 3.3 °F 2.2 °F 1015.5 in Calm     92 % 0.0 in
03:30 3.3 °F 2.1 °F 1015.5 in Calm     92 % 0.0 in
03:45 3.1 °F 1.9 °F 1015.5 in Calm     92 % 0.0 in
04:00 3.1 °F 2.0 °F 1015.1 in Calm     93 % 0.0 in
04:15 3.1 °F 2.0 °F 1015.1 in Calm     93 % 0.0 in
04:30 3.1 °F 1.9 °F 1015.1 in Calm     92 % 0.0 in
04:45 2.8 °F 1.7 °F 1015.1 in Calm     92 % 0.0 in
05:00 2.8 °F 1.8 °F 1015.1 in Calm     93 % 0.0 in
05:15 2.7 °F 1.6 °F 1014.8 in Calm     93 % 0.0 in
05:30 2.7 °F 1.7 °F 1014.8 in Calm     93 % 0.0 in
05:45 2.9 °F 1.9 °F 1014.8 in Calm     93 % 0.0 in
06:00 2.9 °F 1.9 °F 1014.8 in Calm     93 % 0.0 in
06:15 2.9 °F 1.9 °F 1014.8 in Calm     93 % 0.0 in
06:30 3.1 °F 2.0 °F 1014.4 in Calm     93 % 0.0 in
06:45 3.0 °F 1.8 °F 1014.8 in Calm     92 % 0.0 in
07:00 2.9 °F 1.8 °F 1014.8 in Calm     92 % 0.0 in
07:15 2.9 °F 1.9 °F 1014.8 in Calm     93 % 0.0 in
07:30 3.0 °F 1.8 °F 1014.4 in Calm     92 % 0.0 in
07:45 2.9 °F 1.8 °F 1014.8 in Calm     92 % 0.0 in
08:00 3.1 °F 1.9 °F 1014.4 in Calm     92 % 0.0 in
08:15 3.1 °F 1.7 °F 1014.4 in Calm     91 % 0.0 in
08:30 3.0 °F 1.8 °F 1014.4 in Calm     92 % 0.0 in
08:45 3.1 °F 1.7 °F 1014.1 in Calm     91 % 0.0 in
09:00 3.0 °F 1.7 °F 1014.1 in Calm     91 % 0.0 in
09:15 3.0 °F 1.7 °F 1014.1 in Calm     91 % 0.0 in
09:30 3.1 °F 1.8 °F 1013.8 in Calm     91 % 0.0 in
09:45 3.1 °F 1.6 °F 1014.1 in Calm     90 % 0.0 in
10:00 3.1 °F 1.6 °F 1013.8 in Calm     90 % 0.0 in
10:15 2.8 °F 1.5 °F 1013.8 in Calm     91 % 0.0 in
10:30 2.7 °F 1.3 °F 1013.8 in Calm     91 % 0.0 in
10:45 2.6 °F 1.3 °F 1013.8 in Calm     91 % 0.0 in
11:00 2.6 °F 1.4 °F 1013.4 in Calm     92 % 0.0 in
11:15 2.7 °F 1.3 °F 1013.4 in Calm     91 % 0.0 in
11:30 2.8 °F 1.5 °F 1013.4 in Calm     91 % 0.0 in
11:45 3.1 °F 1.7 °F 1013.4 in Calm     91 % 0.0 in
12:00 3.3 °F 1.8 °F 1013.1 in Calm     90 % 0.0 in
12:15 3.5 °F 1.9 °F 1013.1 in Calm     89 % 0.0 in
12:30 3.6 °F 2.0 °F 1013.1 in Calm     89 % 0.0 in
12:45 3.7 °F 1.9 °F 1013.1 in Calm     88 % 0.0 in
13:00 3.8 °F 2.0 °F 1013.1 in Calm     88 % 0.0 in
13:15 3.8 °F 1.8 °F 1013.1 in Calm     87 % 0.0 in
13:30 3.8 °F 2.0 °F 1012.8 in Calm     88 % 0.0 in
13:45 3.8 °F 2.0 °F 1012.8 in Calm     88 % 0.0 in
14:00 3.8 °F 1.8 °F 1012.8 in Calm     87 % 0.0 in
14:15 3.8 °F 1.8 °F 1012.4 in Calm     87 % 0.0 in
14:30 3.8 °F 1.9 °F 1012.4 in Calm     87 % 0.0 in
14:45 3.8 °F 1.7 °F 1012.4 in Calm     86 % 0.0 in
15:00 3.9 °F 1.8 °F 1012.4 in Calm     86 % 0.0 in
15:15 3.8 °F 1.7 °F 1012.4 in Calm     86 % 0.0 in
15:30 3.8 °F 1.7 °F 1012.4 in Calm     86 % 0.0 in
15:45 3.7 °F 1.7 °F 1012.1 in Calm     87 % 0.0 in
16:00 3.5 °F 1.5 °F 1012.1 in Calm     87 % 0.0 in
16:15 3.3 °F 1.4 °F 1012.1 in Calm     87 % 0.0 in
16:30 3.2 °F 1.4 °F 1012.1 in Calm     88 % 0.0 in
16:45 3.2 °F 1.4 °F 1011.7 in Calm     88 % 0.0 in
17:00 3.1 °F 1.3 °F 1011.7 in Calm     88 % 0.0 in
17:15 2.7 °F 1.0 °F 1011.7 in Calm     89 % 0.0 in
17:30 2.4 °F 0.8 °F 1011.7 in Calm     89 % 0.0 in
17:45 2.2 °F 0.7 °F 1011.4 in Calm     90 % 0.0 in
18:00 1.9 °F 0.6 °F 1011.4 in Calm     91 % 0.0 in
18:15 1.7 °F 0.4 °F 1011.1 in Calm     91 % 0.0 in
18:30 1.2 °F 0.0 °F 1011.1 in Calm     92 % 0.0 in
18:45 1.1 °F 0.1 °F 1011.1 in Calm     93 % 0.0 in
19:00 1.0 °F 0.0 °F 1011.1 in Calm     93 % 0.0 in
19:15 0.6 °F -0.4 °F 1011.1 in Calm     93 % 0.0 in
19:30 0.5 °F -0.4 °F 1010.7 in Calm     94 % 0.0 in
19:45 0.6 °F -0.3 °F 1010.7 in Calm     94 % 0.0 in
20:00 0.7 °F -0.1 °F 1010.4 in Calm     94 % 0.0 in
20:15 0.7 °F -0.1 °F 1010.4 in Calm     94 % 0.0 in
20:30 0.6 °F -0.2 °F 1010.4 in Calm     94 % 0.0 in
20:45 0.6 °F -0.3 °F 1010.4 in Calm     94 % 0.0 in
21:00 0.5 °F -0.4 °F 1010.4 in Calm     94 % 0.0 in
21:15 0.4 °F -0.5 °F 1010.0 in Calm     94 % 0.0 in
21:30 0.3 °F -0.6 °F 1010.0 in Calm     94 % 0.0 in
21:45 0.2 °F -0.5 °F 1009.7 in Calm     95 % 0.0 in
22:00 0.3 °F -0.4 °F 1009.7 in Calm     95 % 0.0 in
22:15 0.4 °F -0.3 °F 1009.7 in Calm     95 % 0.0 in
22:30 0.2 °F -0.6 °F 1009.7 in Calm     94 % 0.0 in
22:45 0.2 °F -0.5 °F 1009.4 in Calm     95 % 0.0 in
23:00 0.1 °F -0.6 °F 1009.7 in Calm     95 % 0.0 in
23:15 -0.1 °F -0.8 °F 1009.4 in Calm     95 % 0.0 in
23:30 -0.1 °F -0.8 °F 1009.4 in Calm     95 % 0.0 in
23:45 0.0 °F -0.7 °F 1009.0 in Calm     95 % 0.0 in
Esan sääasema
Terveisin Weather Underground - 2.75 mb

Alkuperäinen skripti  Jim McMurry - jmcmurry@mwt.net Sovitettu myös templatelle  Wim van der Kuil - Leuven-Template.eu

Laitteet joita käytämme:

Sääasema
Davis VP2

Sääasemaohjelma
Cumulus

Sääaseman tietokone
Asus EeePC

Palveluntarjoaja
Suncomet

Davis VP2

Cumulus

Asus EeePC

Suncomet